Time;durP1;ratioP1;P1;durP2;ratioP2;P2;SDS_P1;SDS_P2;PMS_P1;PMS_P2;Temp;Humidity;BMP_temperature;BMP_pressure;BME280_temperature;BME280_humidity;BME280_pressure;Samples;Min_cycle;Max_cycle;Signal;HPM_P1;HPM_P2
2022/12/14 00:02:15;;;;;;;3.83;2.28;;;17.30;38.40;;;;;;5048561;28;20127;-44
2022/12/14 00:04:42;;;;;;;3.65;2.38;;;17.30;38.40;;;;;;5041099;28;20065;-45
2022/12/14 00:07:09;;;;;;;5.00;2.35;;;17.30;38.40;;;;;;5047829;28;20061;-47
2022/12/14 00:09:36;;;;;;;2.85;2.35;;;17.30;38.40;;;;;;5048696;28;20698;-45
2022/12/14 00:12:05;;;;;;;2.70;2.42;;;17.30;38.30;;;;;;5048413;28;20464;-44
2022/12/14 00:14:32;;;;;;;3.08;2.28;;;17.30;38.40;;;;;;5047701;28;20055;-45
2022/12/14 00:16:59;;;;;;;5.15;2.55;;;17.30;38.30;;;;;;5047472;28;20120;-44
2022/12/14 00:19:26;;;;;;;3.15;1.95;;;17.30;38.30;;;;;;5048386;28;20040;-45
2022/12/14 00:21:54;;;;;;;3.20;2.58;;;17.30;38.30;;;;;;5048574;28;20041;-44
2022/12/14 00:24:21;;;;;;;3.35;1.73;;;17.30;38.20;;;;;;5048375;28;20041;-43
2022/12/14 00:26:49;;;;;;;3.90;2.05;;;17.20;38.80;;;;;;5048242;28;20124;-44
2022/12/14 00:29:18;;;;;;;4.05;2.03;;;17.20;38.20;;;;;;5047361;28;20559;-43
2022/12/14 00:31:45;;;;;;;2.80;2.60;;;17.20;38.30;;;;;;5048137;28;20044;-45
2022/12/14 00:34:12;;;;;;;11.02;2.53;;;17.20;38.50;;;;;;5047979;28;20095;-44
2022/12/14 00:36:40;;;;;;;7.85;3.80;;;17.20;38.70;;;;;;5041727;28;20080;-43
2022/12/14 00:39:07;;;;;;;7.03;2.92;;;17.10;38.80;;;;;;5045593;28;20493;-46
2022/12/14 00:41:34;;;;;;;4.32;1.80;;;17.10;39.00;;;;;;5047746;28;20567;-46
2022/12/14 00:44:01;;;;;;;4.80;2.53;;;17.00;39.10;;;;;;5047612;28;20138;-43
2022/12/14 00:46:29;;;;;;;2.83;2.30;;;17.00;39.20;;;;;;5047313;28;20036;-47
2022/12/14 00:48:56;;;;;;;7.80;3.13;;;16.90;39.30;;;;;;5047872;28;20119;-48
2022/12/14 00:51:23;;;;;;;7.40;1.90;;;16.90;39.40;;;;;;5047312;28;20888;-46
2022/12/14 00:53:51;;;;;;;2.70;1.98;;;16.80;39.50;;;;;;5047128;28;20061;-48
2022/12/14 00:56:18;;;;;;;3.45;1.65;;;16.80;39.60;;;;;;5047756;28;20039;-46
2022/12/14 00:58:50;;;;;;;3.05;1.90;;;16.80;39.60;;;;;;5048466;28;20048;-45
2022/12/14 01:01:17;;;;;;;3.05;2.05;;;16.70;39.70;;;;;;5046477;28;20076;-44
2022/12/14 01:03:46;;;;;;;4.82;3.20;;;16.70;39.80;;;;;;5047743;28;20072;-45
2022/12/14 01:06:14;;;;;;;6.60;1.95;;;16.70;39.90;;;;;;5047158;28;20440;-45
2022/12/14 01:08:41;;;;;;;2.83;2.25;;;16.60;39.90;;;;;;5047456;28;20083;-45
2022/12/14 01:11:09;;;;;;;5.47;2.83;;;16.60;40.00;;;;;;5047188;28;20041;-45
2022/12/14 01:13:38;;;;;;;3.53;1.98;;;16.60;40.00;;;;;;5047279;28;20045;-45
2022/12/14 01:16:07;;;;;;;3.90;2.40;;;16.50;40.70;;;;;;5047315;28;20048;-44
2022/12/14 01:18:35;;;;;;;2.00;1.80;;;16.50;40.10;;;;;;5046398;28;20120;-44
2022/12/14 01:21:12;;;;;;;2.45;1.60;;;16.50;40.20;;;;;;5047268;28;20048;-44
2022/12/14 01:23:39;;;;;;;1.70;1.48;;;16.50;40.20;;;;;;5042447;28;20045;-48
2022/12/14 01:26:06;;;;;;;1.63;1.52;;;16.40;40.30;;;;;;5046421;28;20051;-45
2022/12/14 01:28:34;;;;;;;2.30;1.40;;;16.40;40.30;;;;;;5047080;28;20036;-45
2022/12/14 01:31:06;;;;;;;3.63;2.38;;;16.40;40.30;;;;;;5047183;28;20577;-46
2022/12/14 01:33:33;;;;;;;6.63;2.03;;;16.40;40.40;;;;;;5046072;28;20075;-44
2022/12/14 01:36:04;;;;;;;4.22;2.15;;;16.40;40.40;;;;;;5046923;28;20140;-44
2022/12/14 01:38:33;;;;;;;2.17;1.70;;;16.30;41.00;;;;;;5046838;28;20049;-45
2022/12/14 01:41:00;;;;;;;3.35;2.33;;;16.30;40.40;;;;;;5046881;28;20589;-44
2022/12/14 01:43:45;;;;;;;1.70;1.40;;;16.30;40.40;;;;;;5046996;28;20095;-45
2022/12/14 01:46:15;;;;;;;2.75;1.55;;;16.30;40.50;;;;;;5046731;28;20072;-43
2022/12/14 01:48:43;;;;;;;5.18;2.03;;;16.30;40.60;;;;;;5046903;28;20045;-43
2022/12/14 01:51:10;;;;;;;3.55;1.73;;;16.20;40.60;;;;;;5046396;28;20509;-44
2022/12/14 01:53:39;;;;;;;6.40;1.48;;;16.20;40.60;;;;;;5046633;28;20044;-44
2022/12/14 01:56:06;;;;;;;2.55;1.30;;;16.20;40.70;;;;;;5046930;28;20036;-44
2022/12/14 01:58:33;;;;;;;1.58;1.48;;;16.20;40.80;;;;;;5047145;28;20171;-44
2022/12/14 02:01:03;;;;;;;3.40;1.90;;;16.20;40.90;;;;;;5045415;28;20049;-45
2022/12/14 02:03:32;;;;;;;3.72;2.05;;;16.20;40.90;;;;;;5046732;28;20528;-46
2022/12/14 02:06:04;;;;;;;2.78;1.92;;;16.20;41.10;;;;;;5049839;28;20743;-46
2022/12/14 02:08:32;;;;;;;2.35;1.50;;;16.20;41.20;;;;;;5051028;28;20501;-46
2022/12/14 02:11:01;;;;;;;6.40;2.45;;;16.20;41.30;;;;;;5051442;28;20131;-44
2022/12/14 02:13:32;;;;;;;3.92;1.83;;;16.20;41.90;;;;;;5050742;28;20048;-47
2022/12/14 02:15:59;;;;;;;2.53;1.70;;;16.10;41.30;;;;;;5050393;28;20563;-44
2022/12/14 02:18:28;;;;;;;2.13;1.58;;;16.10;41.40;;;;;;5050520;28;20126;-46
2022/12/14 02:21:19;;;;;;;6.07;2.78;;;16.10;41.50;;;;;;5050236;28;20056;-45
2022/12/14 02:24:17;;;;;;;1.58;1.48;;;16.10;41.60;;;;;;5050156;28;20045;-45
2022/12/14 02:27:02;;;;;;;2.70;1.85;;;16.10;41.70;;;;;;5048358;28;20041;-46
2022/12/14 02:30:07;;;;;;;5.22;1.83;;;16.10;42.50;;;;;;5050540;28;20043;-45
2022/12/14 02:32:55;;;;;;;2.70;1.45;;;16.10;42.00;;;;;;5045804;28;20064;-45
2022/12/14 02:35:33;;;;;;;1.75;1.40;;;16.00;42.00;;;;;;5050503;28;20091;-45
2022/12/14 02:38:08;;;;;;;2.47;2.08;;;16.00;42.80;;;;;;5050518;28;20051;-45
2022/12/14 02:40:41;;;;;;;2.95;1.42;;;16.00;42.20;;;;;;5050582;28;20547;-47
2022/12/14 02:43:16;;;;;;;1.45;1.35;;;16.00;42.30;;;;;;5051116;28;20524;-46
2022/12/14 02:45:51;;;;;;;4.17;1.87;;;16.00;42.40;;;;;;5050626;28;20086;-45
2022/12/14 02:48:22;;;;;;;4.22;2.60;;;16.00;42.50;;;;;;5050226;28;20513;-45
2022/12/14 02:50:57;;;;;;;2.45;1.35;;;15.90;42.60;;;;;;5049988;28;20056;-46
2022/12/14 02:53:29;;;;;;;3.53;1.55;;;15.90;42.70;;;;;;5050608;28;20041;-46
2022/12/14 02:56:01;;;;;;;3.47;1.65;;;16.00;42.70;;;;;;5049169;28;20049;-45
2022/12/14 02:58:33;;;;;;;3.03;2.33;;;15.90;42.80;;;;;;5049952;28;20928;-45
2022/12/14 03:01:03;;;;;;;3.60;2.10;;;15.90;42.90;;;;;;5049679;28;20131;-47
2022/12/14 03:03:30;;;;;;;2.25;1.40;;;15.90;43.00;;;;;;5049370;28;20045;-46
2022/12/14 03:05:59;;;;;;;3.58;2.22;;;15.90;43.00;;;;;;5049512;28;20040;-44
2022/12/14 03:08:28;;;;;;;3.25;2.03;;;15.90;43.10;;;;;;5048757;28;20520;-43
2022/12/14 03:10:58;;;;;;;2.45;2.00;;;15.90;43.20;;;;;;5050097;28;20029;-46
2022/12/14 03:13:29;;;;;;;2.72;2.10;;;15.90;43.30;;;;;;5049587;28;20044;-44
2022/12/14 03:16:00;;;;;;;2.80;1.67;;;15.90;44.00;;;;;;5049091;28;20081;-45
2022/12/14 03:18:34;;;;;;;3.63;2.60;;;15.80;43.40;;;;;;5046691;28;20043;-44
2022/12/14 03:21:03;;;;;;;2.78;2.08;;;15.80;43.60;;;;;;5049514;28;20100;-45
2022/12/14 03:23:33;;;;;;;3.28;2.50;;;15.80;43.70;;;;;;5049771;28;20124;-46
2022/12/14 03:26:06;;;;;;;2.88;2.58;;;15.80;43.80;;;;;;5049424;28;20060;-45
2022/12/14 03:28:40;;;;;;;3.83;2.58;;;15.80;43.80;;;;;;5049488;28;20045;-46
2022/12/14 03:31:13;;;;;;;2.65;2.03;;;15.80;43.90;;;;;;5049581;28;20060;-47
2022/12/14 03:33:43;;;;;;;4.63;2.92;;;15.80;44.00;;;;;;5049305;28;20424;-45
2022/12/14 03:36:17;;;;;;;6.15;2.80;;;15.80;44.20;;;;;;5048940;28;20048;-45
2022/12/14 03:38:48;;;;;;;4.97;3.10;;;15.80;44.30;;;;;;5049588;28;20068;-44
2022/12/14 03:41:22;;;;;;;2.38;1.70;;;15.80;44.30;;;;;;5049352;28;20041;-43
2022/12/14 03:44:02;;;;;;;2.33;1.63;;;15.80;44.50;;;;;;5049282;28;20091;-44
2022/12/14 03:46:40;;;;;;;2.47;1.73;;;15.70;44.80;;;;;;5048994;28;20045;-44
2022/12/14 03:49:17;;;;;;;2.55;1.73;;;15.80;44.70;;;;;;5048828;28;20068;-43
2022/12/14 03:51:57;;;;;;;1.90;1.60;;;15.70;44.70;;;;;;5048560;28;20053;-45
2022/12/14 03:54:33;;;;;;;4.07;2.65;;;15.70;44.80;;;;;;5049097;28;20103;-42
2022/12/14 03:57:07;;;;;;;5.07;3.25;;;15.80;45.00;;;;;;5049176;28;20041;-44
2022/12/14 03:59:40;;;;;;;2.90;2.15;;;15.70;45.00;;;;;;5049033;28;20413;-43
2022/12/14 04:02:12;;;;;;;3.25;1.98;;;15.70;45.20;;;;;;5048665;28;20052;-44
2022/12/14 04:04:45;;;;;;;3.50;1.85;;;15.70;45.40;;;;;;5048317;28;20044;-43
2022/12/14 04:07:17;;;;;;;5.30;2.00;;;15.70;45.60;;;;;;5048718;28;20473;-43
2022/12/14 04:09:50;;;;;;;2.15;1.80;;;15.70;45.50;;;;;;5048834;28;20049;-43
2022/12/14 04:20:50;;;;;;;2.22;2.00;;;15.70;45.40;;;;;;5031966;28;20068;-44
2022/12/14 04:26:03;;;;;;;3.40;2.15;;;15.70;45.40;;;;;;5033984;28;20041;-44
2022/12/14 04:26:11;;;;;;;2.88;2.05;;;15.70;45.40;;;;;;5048055;28;20051;-47
2022/12/14 04:31:31;;;;;;;2.28;2.08;;;15.70;45.30;;;;;;5046825;28;21925;-44
2022/12/14 04:34:04;;;;;;;2.70;2.03;;;15.60;45.20;;;;;;5047394;28;20056;-44
2022/12/14 04:36:37;;;;;;;1.45;1.10;;;15.60;45.20;;;;;;5048170;28;20448;-44
2022/12/14 04:39:07;;;;;;;3.60;2.55;;;15.60;45.10;;;;;;5039261;28;20119;-49
2022/12/14 04:41:38;;;;;;;4.13;2.05;;;15.60;45.10;;;;;;5042778;28;20091;-44
2022/12/14 04:44:13;;;;;;;2.88;1.75;;;15.70;45.20;;;;;;5047746;28;20045;-45
2022/12/14 04:46:42;;;;;;;4.13;1.63;;;15.70;45.10;;;;;;5041221;28;20064;-44
2022/12/14 04:49:19;;;;;;;3.65;1.70;;;15.60;45.00;;;;;;5048182;28;20049;-46
2022/12/14 04:51:53;;;;;;;1.65;1.52;;;15.60;45.00;;;;;;5048480;28;20048;-45
2022/12/14 04:54:26;;;;;;;4.47;2.25;;;15.70;45.00;;;;;;5048371;28;20102;-44
2022/12/14 04:57:00;;;;;;;5.10;2.45;;;15.70;45.10;;;;;;5047901;28;20413;-45
2022/12/14 04:59:27;;;;;;;4.10;2.47;;;15.70;45.10;;;;;;5047515;28;20071;-45
2022/12/14 05:02:02;;;;;;;3.75;2.75;;;15.70;45.10;;;;;;5047115;28;20115;-45
2022/12/14 05:04:53;;;;;;;3.80;1.50;;;15.70;45.10;;;;;;5046158;28;20068;-44
2022/12/14 05:07:34;;;;;;;2.47;2.30;;;15.70;45.20;;;;;;5045682;28;20049;-45
2022/12/14 05:10:06;;;;;;;3.58;2.22;;;15.70;45.20;;;;;;5045953;28;20048;-45
2022/12/14 05:12:39;;;;;;;4.47;3.08;;;15.70;45.20;;;;;;5044540;28;20041;-44
2022/12/14 05:15:11;;;;;;;3.20;2.30;;;15.70;45.10;;;;;;5046804;28;20094;-45
2022/12/14 05:17:40;;;;;;;5.70;2.20;;;15.70;45.10;;;;;;5043866;28;20114;-44
2022/12/14 05:20:14;;;;;;;3.03;2.70;;;15.70;45.00;;;;;;5046972;28;20044;-46
2022/12/14 05:22:43;;;;;;;3.92;1.77;;;15.70;45.10;;;;;;5047520;28;20468;-44
2022/12/14 05:25:11;;;;;;;2.75;2.13;;;15.70;45.10;;;;;;5046964;28;20069;-44
2022/12/14 05:27:38;;;;;;;2.90;2.55;;;15.70;45.00;;;;;;5046967;28;20061;-44
2022/12/14 05:30:07;;;;;;;2.78;2.10;;;15.70;45.00;;;;;;5047025;28;20051;-46
2022/12/14 05:32:34;;;;;;;3.50;2.17;;;15.70;45.00;;;;;;5043830;28;20056;-46
2022/12/14 05:35:02;;;;;;;2.92;2.03;;;15.70;45.00;;;;;;5046696;28;20538;-44
2022/12/14 05:37:29;;;;;;;2.83;2.33;;;15.70;45.00;;;;;;5047178;28;20142;-44
2022/12/14 05:39:58;;;;;;;2.58;2.22;;;15.70;45.00;;;;;;5046280;28;20255;-44
2022/12/14 05:42:25;;;;;;;3.53;2.13;;;15.70;44.90;;;;;;5047186;28;20505;-44
2022/12/14 05:44:52;;;;;;;2.40;1.88;;;15.80;44.90;;;;;;5046573;28;20139;-44
2022/12/14 05:47:19;;;;;;;2.17;1.50;;;15.70;44.80;;;;;;5046778;28;20044;-44
2022/12/14 05:49:46;;;;;;;3.20;2.17;;;15.70;44.80;;;;;;5046985;28;20124;-44
2022/12/14 05:52:13;;;;;;;3.78;2.40;;;15.70;44.80;;;;;;5047206;28;20045;-42
2022/12/14 05:54:40;;;;;;;3.78;1.75;;;15.70;44.70;;;;;;5046965;28;20056;-44
2022/12/14 05:57:09;;;;;;;2.78;1.98;;;15.70;44.70;;;;;;5046831;28;20048;-44
2022/12/14 05:59:36;;;;;;;3.05;1.65;;;15.70;44.70;;;;;;5046939;28;20127;-44
2022/12/14 06:02:03;;;;;;;2.58;1.65;;;15.70;44.60;;;;;;5046557;28;20037;-45
2022/12/14 06:04:31;;;;;;;3.97;2.67;;;15.70;44.60;;;;;;5046705;28;20041;-44
2022/12/14 06:06:58;;;;;;;4.25;2.42;;;15.70;44.60;;;;;;5046788;28;20118;-46
2022/12/14 06:09:25;;;;;;;2.90;2.28;;;15.70;44.60;;;;;;5046991;28;20478;-44
2022/12/14 06:11:52;;;;;;;4.68;2.03;;;15.70;44.50;;;;;;5046690;28;20041;-44
2022/12/14 06:14:23;;;;;;;2.75;1.88;;;15.70;44.50;;;;;;5046550;28;20091;-45
2022/12/14 06:16:50;;;;;;;4.25;2.55;;;15.70;44.50;;;;;;5046487;28;20130;-45
2022/12/14 06:19:17;;;;;;;2.30;2.10;;;15.70;44.50;;;;;;5046704;28;20561;-44
2022/12/14 06:21:44;;;;;;;3.85;2.22;;;15.70;44.50;;;;;;5046635;28;20106;-45
2022/12/14 06:24:13;;;;;;;2.70;1.92;;;15.80;44.50;;;;;;5046637;28;20144;-46
2022/12/14 06:26:40;;;;;;;2.30;1.60;;;15.80;44.50;;;;;;5046308;28;20040;-45
2022/12/14 06:29:11;;;;;;;3.08;2.13;;;15.80;44.50;;;;;;5045662;28;20683;-44
2022/12/14 06:31:39;;;;;;;2.85;1.50;;;15.80;44.50;;;;;;5046632;28;20056;-45
2022/12/14 06:34:06;;;;;;;2.35;1.98;;;15.80;44.50;;;;;;5046545;28;20164;-44
2022/12/14 06:36:35;;;;;;;3.72;1.45;;;15.80;44.50;;;;;;5046387;28;20044;-44
2022/12/14 06:39:05;;;;;;;1.98;1.52;;;15.80;44.50;;;;;;5046652;28;20090;-44
2022/12/14 06:41:32;;;;;;;3.22;2.15;;;15.80;44.50;;;;;;5047114;28;20539;-44
2022/12/14 06:44:05;;;;;;;3.13;1.73;;;15.80;44.50;;;;;;5046299;28;20128;-44
2022/12/14 06:46:33;;;;;;;2.10;1.80;;;15.80;45.00;;;;;;5047643;28;20049;-44
2022/12/14 06:49:01;;;;;;;1.65;1.50;;;15.80;44.50;;;;;;5047865;28;20048;-44
2022/12/14 06:51:29;;;;;;;1.85;1.50;;;15.80;44.40;;;;;;5049133;28;20573;-45
2022/12/14 06:53:57;;;;;;;3.75;1.88;;;15.80;44.40;;;;;;5050727;28;20120;-47
2022/12/14 06:56:26;;;;;;;2.33;1.52;;;15.80;44.30;;;;;;5050324;28;20040;-45
2022/12/14 06:58:54;;;;;;;2.25;1.95;;;15.80;44.30;;;;;;5050120;28;20124;-45
2022/12/14 07:01:23;;;;;;;3.60;3.25;;;15.80;44.30;;;;;;5049586;28;20064;-44
2022/12/14 07:03:52;;;;;;;3.22;1.92;;;15.80;44.30;;;;;;5050005;28;20132;-48
2022/12/14 07:06:21;;;;;;;2.47;1.05;;;15.80;44.30;;;;;;5049765;28;20110;-44
2022/12/14 07:08:49;;;;;;;2.95;1.85;;;15.80;44.30;;;;;;5049800;28;20124;-45
2022/12/14 07:11:17;;;;;;;3.33;1.88;;;15.80;44.40;;;;;;5049625;28;20090;-44
2022/12/14 07:13:44;;;;;;;2.30;2.05;;;15.80;44.40;;;;;;5049303;28;20053;-45
2022/12/14 07:16:16;;;;;;;2.42;2.17;;;15.80;44.90;;;;;;5049423;28;20490;-44
2022/12/14 07:18:43;;;;;;;4.03;2.33;;;15.80;44.30;;;;;;5049648;28;20040;-44
2022/12/14 07:21:12;;;;;;;3.28;1.65;;;15.80;44.30;;;;;;5044789;28;20045;-45
2022/12/14 07:23:42;;;;;;;1.83;1.60;;;15.90;44.30;;;;;;5049881;28;20110;-44
2022/12/14 07:26:12;;;;;;;2.72;1.73;;;15.90;44.30;;;;;;5049470;28;20041;-45
2022/12/14 07:28:39;;;;;;;2.13;1.55;;;15.90;44.30;;;;;;5049210;28;20041;-44
2022/12/14 07:31:10;;;;;;;3.92;2.75;;;15.80;44.30;;;;;;5047634;28;20048;-45
2022/12/14 07:33:37;;;;;;;2.22;1.52;;;15.80;44.30;;;;;;5049352;28;20095;-45
2022/12/14 07:36:06;;;;;;;3.65;3.28;;;15.90;44.30;;;;;;5049368;28;20061;-44
2022/12/14 07:38:34;;;;;;;2.67;1.80;;;15.90;44.30;;;;;;5049125;28;20464;-44
2022/12/14 07:41:04;;;;;;;1.88;1.48;;;15.90;44.30;;;;;;5049409;28;20102;-44
2022/12/14 07:43:31;;;;;;;3.42;3.00;;;15.90;44.40;;;;;;5049147;28;20048;-44
2022/12/14 07:46:03;;;;;;;2.30;1.67;;;15.80;44.30;;;;;;5048739;28;20040;-44
2022/12/14 07:48:30;;;;;;;3.40;2.22;;;15.90;44.30;;;;;;5049400;28;20132;-44
2022/12/14 07:51:03;;;;;;;3.90;2.55;;;15.90;44.30;;;;;;5049109;28;20501;-44
2022/12/14 07:53:33;;;;;;;3.95;2.63;;;15.90;44.30;;;;;;5048887;28;20045;-45
2022/12/14 07:56:03;;;;;;;2.53;1.85;;;15.90;44.30;;;;;;5048637;28;20049;-44
2022/12/14 07:58:31;;;;;;;3.00;2.05;;;15.90;44.40;;;;;;5049162;28;20041;-45
2022/12/14 08:01:10;;;;;;;2.22;2.00;;;15.90;44.90;;;;;;5048845;28;20127;-47
2022/12/14 08:03:37;;;;;;;2.28;1.50;;;15.90;44.40;;;;;;5048520;28;20049;-45
2022/12/14 08:06:05;;;;;;;2.85;2.13;;;15.90;44.50;;;;;;5048769;28;20140;-45
2022/12/14 08:08:33;;;;;;;2.05;1.52;;;15.90;44.50;;;;;;5048587;28;20090;-46
2022/12/14 08:11:00;;;;;;;3.05;2.13;;;15.90;44.50;;;;;;5048653;28;20115;-44
2022/12/14 08:13:29;;;;;;;3.25;2.30;;;15.90;44.50;;;;;;5048919;28;20067;-44
2022/12/14 08:15:56;;;;;;;3.90;2.22;;;15.90;44.50;;;;;;5048381;28;20585;-44
2022/12/14 08:18:24;;;;;;;2.20;1.70;;;15.90;44.40;;;;;;5048782;28;20041;-44
2022/12/14 08:20:51;;;;;;;2.55;2.35;;;15.90;44.40;;;;;;5048865;28;20127;-44
2022/12/14 08:23:18;;;;;;;3.42;1.98;;;15.90;44.40;;;;;;5047592;28;20045;-43
2022/12/14 08:25:45;;;;;;;1.77;1.65;;;15.90;44.40;;;;;;5046732;28;20123;-44
2022/12/14 08:28:12;;;;;;;8.70;1.85;;;15.90;44.40;;;;;;5048684;28;20155;-45
2022/12/14 08:30:41;;;;;;;2.03;1.52;;;15.90;44.40;;;;;;5047074;28;20081;-44
2022/12/14 08:33:08;;;;;;;3.30;1.90;;;15.90;44.40;;;;;;5048507;28;20052;-44
2022/12/14 08:35:35;;;;;;;3.25;1.60;;;15.90;44.50;;;;;;5048471;28;20161;-44
2022/12/14 08:38:02;;;;;;;2.58;2.10;;;15.90;44.50;;;;;;5048613;28;20476;-45
2022/12/14 08:40:30;;;;;;;2.50;2.03;;;15.90;44.50;;;;;;5048080;28;20063;-45
2022/12/14 08:42:58;;;;;;;2.38;1.92;;;15.90;44.40;;;;;;5029406;28;20399;-45
2022/12/14 08:45:25;;;;;;;6.53;2.05;;;15.90;44.40;;;;;;5038911;28;20037;-49
2022/12/14 08:47:56;;;;;;;5.97;2.72;;;15.90;44.30;;;;;;5038603;28;20046;-51
2022/12/14 08:50:23;;;;;;;3.03;1.98;;;16.00;44.70;;;;;;5042542;28;20045;-45
2022/12/14 08:52:50;;;;;;;5.80;2.80;;;16.10;44.90;;;;;;5048026;28;20127;-44
2022/12/14 08:55:19;;;;;;;5.88;2.92;;;16.20;44.90;;;;;;5043820;28;20040;-44
2022/12/14 08:57:46;;;;;;;3.30;2.67;;;16.30;44.60;;;;;;5047574;28;20051;-45
2022/12/14 09:00:14;;;;;;;5.22;3.40;;;16.40;44.10;;;;;;5047919;28;20060;-46
2022/12/14 09:02:42;;;;;;;6.07;4.25;;;16.50;43.60;;;;;;5037778;28;20034;-48
2022/12/14 09:05:10;;;;;;;4.50;3.42;;;16.60;43.50;;;;;;5042002;28;20565;-50
2022/12/14 09:07:37;;;;;;;5.07;3.67;;;16.70;43.50;;;;;;5047679;28;20497;-48
2022/12/14 09:10:06;;;;;;;6.18;3.22;;;16.80;43.40;;;;;;5047069;28;20045;-46
2022/12/14 09:12:35;;;;;;;4.78;3.60;;;16.90;43.40;;;;;;5047279;28;20099;-48
2022/12/14 09:15:02;;;;;;;4.70;3.38;;;17.00;43.20;;;;;;5046458;28;20052;-47
2022/12/14 09:17:29;;;;;;;3.10;2.30;;;17.20;43.00;;;;;;5047299;28;20045;-46
2022/12/14 09:19:56;;;;;;;4.97;3.55;;;17.30;42.90;;;;;;5045017;28;20650;-46
2022/12/14 09:22:25;;;;;;;3.05;2.78;;;17.50;42.50;;;;;;5037194;28;20124;-50
2022/12/14 09:24:52;;;;;;;4.75;2.67;;;17.70;42.40;;;;;;5046619;28;20045;-47
2022/12/14 09:27:21;;;;;;;5.10;3.40;;;17.80;42.10;;;;;;5047085;28;20072;-48
2022/12/14 09:29:49;;;;;;;3.35;3.05;;;18.00;41.70;;;;;;5046948;28;20882;-45
2022/12/14 09:32:16;;;;;;;6.88;4.00;;;18.10;41.60;;;;;;5047215;28;20075;-46
2022/12/14 09:34:43;;;;;;;3.97;2.85;;;18.30;41.30;;;;;;5047327;28;20048;-48
2022/12/14 09:37:11;;;;;;;3.35;2.33;;;18.50;41.10;;;;;;5046991;28;20072;-49
2022/12/14 09:39:40;;;;;;;6.10;4.28;;;18.60;41.00;;;;;;5046906;28;20041;-54
2022/12/14 09:42:25;;;;;;;3.25;2.67;;;18.80;40.60;;;;;;5046213;28;20037;-52
2022/12/14 09:45:00;;;;;;;4.15;1.98;;;19.00;40.50;;;;;;5046720;28;20068;-48
2022/12/14 09:47:32;;;;;;;5.35;2.50;;;19.10;40.80;;;;;;5043502;28;20126;-55
2022/12/14 09:50:03;;;;;;;5.68;2.80;;;19.20;40.40;;;;;;5046892;28;20171;-51
2022/12/14 09:52:36;;;;;;;4.40;3.83;;;19.40;40.00;;;;;;5046447;28;20514;-51
2022/12/14 09:55:15;;;;;;;3.03;2.42;;;19.50;40.00;;;;;;5041091;28;20118;-49
2022/12/14 09:57:44;;;;;;;3.65;2.83;;;19.70;39.90;;;;;;5046740;28;20041;-57
2022/12/14 10:00:16;;;;;;;2.60;2.40;;;19.80;39.90;;;;;;5046831;28;20045;-55
2022/12/14 10:02:59;;;;;;;4.05;2.70;;;19.90;39.70;;;;;;5045303;28;20059;-52
2022/12/14 10:05:50;;;;;;;2.88;2.40;;;20.00;39.40;;;;;;5046801;28;20517;-51
2022/12/14 10:08:25;;;;;;;2.50;2.13;;;20.20;40.10;;;;;;5046669;28;20122;-50
2022/12/14 10:11:02;;;;;;;5.60;2.50;;;20.30;39.30;;;;;;5045467;28;20072;-54
2022/12/14 10:13:42;;;;;;;4.35;2.85;;;20.30;38.60;;;;;;5046939;28;20045;-54
2022/12/14 10:16:19;;;;;;;4.03;2.50;;;20.40;38.80;;;;;;5032631;28;20048;-50
2022/12/14 10:19:07;;;;;;;4.55;3.55;;;20.40;38.80;;;;;;5046209;28;20041;-51
2022/12/14 10:21:45;;;;;;;4.40;4.03;;;20.50;38.20;;;;;;5045138;28;20041;-49
2022/12/14 10:24:17;;;;;;;5.53;3.70;;;20.50;37.70;;;;;;5047683;28;20853;-51
2022/12/14 10:26:50;;;;;;;5.03;3.38;;;20.50;37.30;;;;;;5048799;28;20053;-47
2022/12/14 10:29:24;;;;;;;4.30;3.47;;;20.50;37.40;;;;;;5050752;28;20069;-50
2022/12/14 10:31:59;;;;;;;5.20;3.55;;;20.50;37.40;;;;;;5050296;28;20037;-51
2022/12/14 10:34:30;;;;;;;5.72;3.65;;;20.60;37.20;;;;;;5050577;28;20045;-49
2022/12/14 10:37:05;;;;;;;6.82;3.65;;;20.70;37.20;;;;;;5050332;28;20071;-49
2022/12/14 10:39:44;;;;;;;6.47;4.35;;;20.70;37.00;;;;;;5050792;28;20513;-48
2022/12/14 10:42:16;;;;;;;10.52;3.75;;;20.80;36.90;;;;;;5044503;28;20037;-56
2022/12/14 10:44:53;;;;;;;5.10;3.45;;;20.90;36.80;;;;;;5045388;28;20068;-50
2022/12/14 10:47:26;;;;;;;5.43;4.00;;;21.00;36.90;;;;;;5055475;28;20036;-54
2022/12/14 10:50:00;;;;;;;4.03;3.10;;;21.10;36.80;;;;;;5054604;28;20079;-59
2022/12/14 10:52:34;;;;;;;5.80;3.80;;;21.20;36.80;;;;;;5050461;28;20049;-56
2022/12/14 10:55:06;;;;;;;7.30;4.65;;;21.30;36.60;;;;;;5044035;28;20090;-50
2022/12/14 10:57:35;;;;;;;4.97;3.45;;;21.30;36.20;;;;;;5049741;28;20048;-54
2022/12/14 11:00:05;;;;;;;5.75;3.05;;;21.40;36.20;;;;;;5042352;28;20056;-51
2022/12/14 11:02:35;;;;;;;6.68;3.13;;;21.50;36.20;;;;;;5045403;28;20094;-52
2022/12/14 11:05:03;;;;;;;5.05;3.90;;;21.50;36.00;;;;;;5049190;28;20132;-54
2022/12/14 11:07:39;;;;;;;4.35;3.95;;;21.60;35.90;;;;;;5048663;28;20436;-49
2022/12/14 11:10:15;;;;;;;4.70;4.05;;;21.70;35.70;;;;;;5047443;28;20049;-50
2022/12/14 11:13:02;;;;;;;6.90;4.88;;;21.70;35.30;;;;;;5049958;28;20041;-46
2022/12/14 11:15:32;;;;;;;;;;;21.80;35.20;;;;;;5050528;28;20037;-52
2022/12/14 11:18:24;;;;;;;4.78;3.58;;;21.70;35.70;;;;;;5040931;28;19935;-53
2022/12/14 11:20:54;;;;;;;3.92;3.58;;;21.60;35.00;;;;;;5046379;28;20171;-46
2022/12/14 11:23:25;;;;;;;5.80;4.82;;;21.50;35.10;;;;;;5045831;28;20033;-55
2022/12/14 11:25:55;;;;;;;5.07;4.18;;;21.50;34.90;;;;;;5046615;28;20056;-55
2022/12/14 11:28:29;;;;;;;7.85;5.28;;;21.50;34.70;;;;;;5049281;28;20056;-55
2022/12/14 11:31:02;;;;;;;5.28;3.92;;;21.40;34.30;;;;;;5049477;28;20425;-54
2022/12/14 11:33:35;;;;;;;10.10;5.85;;;21.30;34.20;;;;;;5048619;28;20513;-48
2022/12/14 11:36:02;;;;;;;8.25;4.93;;;21.30;34.20;;;;;;5048827;28;20587;-48
2022/12/14 11:38:31;;;;;;;6.82;4.72;;;21.20;34.90;;;;;;5050061;28;20499;-47
2022/12/14 11:41:02;;;;;;;7.80;5.18;;;21.10;34.20;;;;;;5048327;28;20517;-47
2022/12/14 11:43:34;;;;;;;17.23;6.93;;;21.10;33.90;;;;;;5048641;28;20517;-46
2022/12/14 11:46:01;;;;;;;8.10;5.72;;;21.00;33.70;;;;;;5045526;28;20060;-46
2022/12/14 11:48:29;;;;;;;8.75;5.25;;;20.90;33.80;;;;;;5048647;28;20115;-48
2022/12/14 11:51:11;;;;;;;8.48;5.35;;;20.90;33.70;;;;;;5048784;28;20057;-51
2022/12/14 11:53:39;;;;;;;6.40;5.35;;;20.90;33.90;;;;;;5048584;28;20053;-48
2022/12/14 11:56:11;;;;;;;7.45;5.68;;;20.80;33.60;;;;;;5048903;28;20171;-48
2022/12/14 11:58:47;;;;;;;7.97;5.65;;;20.80;33.40;;;;;;5048593;28;20452;-47
2022/12/14 12:01:18;;;;;;;9.40;5.25;;;20.70;33.40;;;;;;5044075;28;20073;-49
2022/12/14 12:03:48;;;;;;;9.73;5.70;;;20.60;33.40;;;;;;5042675;28;20532;-46
2022/12/14 12:06:21;;;;;;;6.50;4.68;;;20.60;33.30;;;;;;5048260;28;20037;-47
2022/12/14 12:08:55;;;;;;;8.77;5.55;;;20.60;33.40;;;;;;5048078;28;20055;-47
2022/12/14 12:11:26;;;;;;;6.28;5.30;;;20.50;33.30;;;;;;5048837;28;20493;-48
2022/12/14 12:14:00;;;;;;;5.22;4.40;;;20.50;33.30;;;;;;5044090;28;20584;-51
2022/12/14 12:16:29;;;;;;;7.75;5.15;;;20.40;33.20;;;;;;5047478;28;20044;-48
2022/12/14 12:19:00;;;;;;;6.00;4.10;;;20.40;33.70;;;;;;5048031;28;20156;-53
2022/12/14 12:21:29;;;;;;;6.40;4.55;;;20.40;34.00;;;;;;5037080;28;20568;-57
2022/12/14 12:24:01;;;;;;;8.23;6.38;;;20.40;34.30;;;;;;5056285;28;20128;-46
2022/12/14 12:26:31;;;;;;;11.00;4.43;;;20.40;34.20;;;;;;5029190;28;20688;-46
2022/12/14 12:29:05;;;;;;;8.88;5.97;;;20.40;34.40;;;;;;5047678;28;20049;-47
2022/12/14 12:31:38;;;;;;;8.68;4.70;;;20.40;34.20;;;;;;5047442;28;20068;-48
2022/12/14 12:34:13;;;;;;;6.72;4.70;;;20.30;34.30;;;;;;5048075;28;20053;-55
2022/12/14 12:36:40;;;;;;;8.65;4.72;;;20.30;34.30;;;;;;5055705;28;20045;-56
2022/12/14 12:39:14;;;;;;;9.57;4.80;;;20.30;34.50;;;;;;5047350;28;20040;-54
2022/12/14 12:41:50;;;;;;;8.82;5.80;;;20.30;34.40;;;;;;5047968;28;20041;-49
2022/12/14 12:44:27;;;;;;;7.40;6.40;;;20.30;34.40;;;;;;5048657;28;20460;-54
2022/12/14 12:47:07;;;;;;;7.15;5.32;;;20.20;34.50;;;;;;5046046;28;20040;-51
2022/12/14 12:49:34;;;;;;;11.05;5.25;;;20.20;34.30;;;;;;5049694;28;20862;-52
2022/12/14 12:52:05;;;;;;;7.80;5.30;;;20.10;34.20;;;;;;5048276;28;20037;-48
2022/12/14 12:54:37;;;;;;;7.97;5.75;;;20.20;34.30;;;;;;5046038;28;20090;-53
2022/12/14 12:57:07;;;;;;;9.15;4.88;;;20.10;34.00;;;;;;5047295;28;20049;-50
2022/12/14 12:59:38;;;;;;;6.85;4.55;;;20.00;33.90;;;;;;5047418;28;20115;-52
2022/12/14 13:02:21;;;;;;;7.60;5.15;;;20.10;33.90;;;;;;5039730;28;20041;-53
2022/12/14 13:04:52;;;;;;;9.73;7.05;;;20.00;33.70;;;;;;5044845;28;20044;-49
2022/12/14 13:07:28;;;;;;;10.43;5.82;;;20.00;33.70;;;;;;5046140;28;20041;-50
2022/12/14 13:10:00;;;;;;;7.57;5.65;;;20.00;33.70;;;;;;5045959;28;20086;-51
2022/12/14 13:12:34;;;;;;;7.70;5.97;;;19.90;33.70;;;;;;5047314;28;20083;-50
2022/12/14 13:15:06;;;;;;;9.30;5.70;;;19.90;33.80;;;;;;5046790;28;20048;-50
2022/12/14 13:17:38;;;;;;;8.63;5.45;;;19.80;33.60;;;;;;5044627;28;20133;-53
2022/12/14 13:20:19;;;;;;;10.48;6.13;;;19.80;33.60;;;;;;5047076;28;20045;-55